sensor_id;sensor_type;location;lat;lon;timestamp;temperature;humidity
52849;DHT22;38714;53.180;5.812;2022-12-18T00:01:25;-1.70;99.90
52849;DHT22;38714;53.180;5.812;2022-12-18T00:03:52;-1.70;99.90
52849;DHT22;38714;53.180;5.812;2022-12-18T00:06:21;-1.70;99.90
52849;DHT22;38714;53.180;5.812;2022-12-18T00:08:47;-1.70;99.90
52849;DHT22;38714;53.180;5.812;2022-12-18T00:11:15;-1.70;99.90
52849;DHT22;38714;53.180;5.812;2022-12-18T00:13:42;-1.70;99.90
52849;DHT22;38714;53.180;5.812;2022-12-18T00:16:11;-1.70;99.90
52849;DHT22;38714;53.180;5.812;2022-12-18T00:18:37;-1.70;99.90
52849;DHT22;38714;53.180;5.812;2022-12-18T00:21:05;-1.70;99.90
52849;DHT22;38714;53.180;5.812;2022-12-18T00:23:33;-1.70;99.90
52849;DHT22;38714;53.180;5.812;2022-12-18T00:26:04;-1.70;99.90
52849;DHT22;38714;53.180;5.812;2022-12-18T00:28:30;-1.70;99.90
52849;DHT22;38714;53.180;5.812;2022-12-18T00:31:04;-1.70;99.90
52849;DHT22;38714;53.180;5.812;2022-12-18T00:33:30;-1.70;99.90
52849;DHT22;38714;53.180;5.812;2022-12-18T00:36:04;-1.70;99.90
52849;DHT22;38714;53.180;5.812;2022-12-18T00:38:29;-1.70;99.90
52849;DHT22;38714;53.180;5.812;2022-12-18T00:40:55;-1.70;99.90
52849;DHT22;38714;53.180;5.812;2022-12-18T00:43:21;-1.70;99.90
52849;DHT22;38714;53.180;5.812;2022-12-18T00:45:46;-1.70;99.90
52849;DHT22;38714;53.180;5.812;2022-12-18T00:48:12;-1.80;99.90
52849;DHT22;38714;53.180;5.812;2022-12-18T00:50:37;-1.80;99.90
52849;DHT22;38714;53.180;5.812;2022-12-18T00:53:03;-1.80;99.90
52849;DHT22;38714;53.180;5.812;2022-12-18T00:55:29;-1.80;99.90
52849;DHT22;38714;53.180;5.812;2022-12-18T00:57:54;-1.70;99.90
52849;DHT22;38714;53.180;5.812;2022-12-18T01:00:21;-1.80;99.90
52849;DHT22;38714;53.180;5.812;2022-12-18T01:02:46;-1.70;99.90
52849;DHT22;38714;53.180;5.812;2022-12-18T01:05:13;-1.70;99.90
52849;DHT22;38714;53.180;5.812;2022-12-18T01:07:39;-1.70;99.90
52849;DHT22;38714;53.180;5.812;2022-12-18T01:10:06;-1.70;99.90
52849;DHT22;38714;53.180;5.812;2022-12-18T01:12:32;-1.80;99.90
52849;DHT22;38714;53.180;5.812;2022-12-18T01:14:58;-1.70;99.90
52849;DHT22;38714;53.180;5.812;2022-12-18T01:17:23;-1.70;99.90
52849;DHT22;38714;53.180;5.812;2022-12-18T01:19:49;-1.70;99.90
52849;DHT22;38714;53.180;5.812;2022-12-18T01:22:15;-1.70;99.90
52849;DHT22;38714;53.180;5.812;2022-12-18T01:24:40;-1.80;99.90
52849;DHT22;38714;53.180;5.812;2022-12-18T01:27:26;-1.70;99.90
52849;DHT22;38714;53.180;5.812;2022-12-18T01:29:52;-1.80;99.90
52849;DHT22;38714;53.180;5.812;2022-12-18T01:32:17;-1.80;99.90
52849;DHT22;38714;53.180;5.812;2022-12-18T01:34:43;-1.80;99.90
52849;DHT22;38714;53.180;5.812;2022-12-18T01:37:09;-1.80;99.90
52849;DHT22;38714;53.180;5.812;2022-12-18T01:39:34;-1.80;99.90
52849;DHT22;38714;53.180;5.812;2022-12-18T01:42:02;-1.80;99.90
52849;DHT22;38714;53.180;5.812;2022-12-18T01:47:39;-1.80;99.90
52849;DHT22;38714;53.180;5.812;2022-12-18T01:50:10;-1.80;99.90
52849;DHT22;38714;53.180;5.812;2022-12-18T01:52:37;-1.80;99.90
52849;DHT22;38714;53.180;5.812;2022-12-18T01:55:05;-1.80;99.90
52849;DHT22;38714;53.180;5.812;2022-12-18T01:57:31;-1.80;99.90
52849;DHT22;38714;53.180;5.812;2022-12-18T02:00:01;-1.90;99.90
52849;DHT22;38714;53.180;5.812;2022-12-18T02:02:29;-1.90;99.90
52849;DHT22;38714;53.180;5.812;2022-12-18T02:04:55;-1.90;99.90
52849;DHT22;38714;53.180;5.812;2022-12-18T02:10:02;-1.90;99.90
52849;DHT22;38714;53.180;5.812;2022-12-18T02:12:43;-1.90;99.90
52849;DHT22;38714;53.180;5.812;2022-12-18T02:15:27;-1.90;99.90
52849;DHT22;38714;53.180;5.812;2022-12-18T02:18:32;-1.90;99.90
52849;DHT22;38714;53.180;5.812;2022-12-18T02:28:55;-2.10;99.90
52849;DHT22;38714;53.180;5.812;2022-12-18T02:31:28;-2.10;99.90
52849;DHT22;38714;53.180;5.812;2022-12-18T02:33:57;-2.10;99.90
52849;DHT22;38714;53.180;5.812;2022-12-18T02:36:24;-2.10;99.90
52849;DHT22;38714;53.180;5.812;2022-12-18T02:38:52;-2.10;99.90
52849;DHT22;38714;53.180;5.812;2022-12-18T02:41:18;-2.20;99.90
52849;DHT22;38714;53.180;5.812;2022-12-18T02:43:58;-2.20;99.90
52849;DHT22;38714;53.180;5.812;2022-12-18T02:46:36;-2.20;99.90
52849;DHT22;38714;53.180;5.812;2022-12-18T02:52:28;-2.20;99.90
52849;DHT22;38714;53.180;5.812;2022-12-18T02:55:05;-2.30;99.90
52849;DHT22;38714;53.180;5.812;2022-12-18T02:57:40;-2.30;99.90
52849;DHT22;38714;53.180;5.812;2022-12-18T03:00:11;-2.30;99.90
52849;DHT22;38714;53.180;5.812;2022-12-18T03:02:51;-2.30;99.90
52849;DHT22;38714;53.180;5.812;2022-12-18T03:05:31;-2.30;99.90
52849;DHT22;38714;53.180;5.812;2022-12-18T03:08:21;-2.30;99.90
52849;DHT22;38714;53.180;5.812;2022-12-18T03:11:10;-2.30;99.90
52849;DHT22;38714;53.180;5.812;2022-12-18T03:16:11;-2.40;99.90
52849;DHT22;38714;53.180;5.812;2022-12-18T03:21:07;-2.40;99.90
52849;DHT22;38714;53.180;5.812;2022-12-18T03:23:40;-2.40;99.90
52849;DHT22;38714;53.180;5.812;2022-12-18T03:26:10;-2.50;99.90
52849;DHT22;38714;53.180;5.812;2022-12-18T03:28:41;-2.50;99.90
52849;DHT22;38714;53.180;5.812;2022-12-18T03:31:10;-2.60;99.90
52849;DHT22;38714;53.180;5.812;2022-12-18T03:36:12;-2.70;99.90
52849;DHT22;38714;53.180;5.812;2022-12-18T03:38:37;-2.70;99.90
52849;DHT22;38714;53.180;5.812;2022-12-18T03:41:14;-2.70;99.90
52849;DHT22;38714;53.180;5.812;2022-12-18T03:44:05;-2.80;99.90
52849;DHT22;38714;53.180;5.812;2022-12-18T03:46:41;-2.70;99.90
52849;DHT22;38714;53.180;5.812;2022-12-18T03:52:41;-2.90;99.90
52849;DHT22;38714;53.180;5.812;2022-12-18T03:55:10;-3.00;99.90
52849;DHT22;38714;53.180;5.812;2022-12-18T03:57:37;-3.00;99.90
52849;DHT22;38714;53.180;5.812;2022-12-18T04:00:12;-3.00;99.90
52849;DHT22;38714;53.180;5.812;2022-12-18T04:02:53;-3.00;99.90
52849;DHT22;38714;53.180;5.812;2022-12-18T04:05:20;-3.10;99.90
52849;DHT22;38714;53.180;5.812;2022-12-18T04:07:49;-3.10;99.90
52849;DHT22;38714;53.180;5.812;2022-12-18T04:10:16;-3.10;99.90
52849;DHT22;38714;53.180;5.812;2022-12-18T04:12:43;-3.10;99.90
52849;DHT22;38714;53.180;5.812;2022-12-18T04:15:09;-3.10;99.90
52849;DHT22;38714;53.180;5.812;2022-12-18T04:17:35;-3.10;99.90
52849;DHT22;38714;53.180;5.812;2022-12-18T04:20:01;-3.10;99.90
52849;DHT22;38714;53.180;5.812;2022-12-18T04:22:27;-3.10;99.90
52849;DHT22;38714;53.180;5.812;2022-12-18T04:24:52;-3.10;99.90
52849;DHT22;38714;53.180;5.812;2022-12-18T04:27:18;-3.10;99.90
52849;DHT22;38714;53.180;5.812;2022-12-18T04:29:44;-3.20;99.90
52849;DHT22;38714;53.180;5.812;2022-12-18T04:32:09;-3.10;99.90
52849;DHT22;38714;53.180;5.812;2022-12-18T04:34:35;-3.20;99.90
52849;DHT22;38714;53.180;5.812;2022-12-18T04:37:00;-3.10;99.90
52849;DHT22;38714;53.180;5.812;2022-12-18T04:39:26;-3.20;99.90
52849;DHT22;38714;53.180;5.812;2022-12-18T04:41:52;-3.20;99.90
52849;DHT22;38714;53.180;5.812;2022-12-18T04:44:17;-3.20;99.90
52849;DHT22;38714;53.180;5.812;2022-12-18T04:46:43;-3.30;99.90
52849;DHT22;38714;53.180;5.812;2022-12-18T04:49:09;-3.30;99.90
52849;DHT22;38714;53.180;5.812;2022-12-18T04:51:36;-3.40;99.90
52849;DHT22;38714;53.180;5.812;2022-12-18T04:54:01;-3.40;99.90
52849;DHT22;38714;53.180;5.812;2022-12-18T04:56:27;-3.40;99.90
52849;DHT22;38714;53.180;5.812;2022-12-18T04:58:53;-3.30;99.90
52849;DHT22;38714;53.180;5.812;2022-12-18T05:01:18;-3.40;99.90
52849;DHT22;38714;53.180;5.812;2022-12-18T05:03:44;-3.40;99.90
52849;DHT22;38714;53.180;5.812;2022-12-18T05:06:10;-3.40;99.90
52849;DHT22;38714;53.180;5.812;2022-12-18T05:08:36;-3.40;99.90
52849;DHT22;38714;53.180;5.812;2022-12-18T05:11:09;-3.50;99.90
52849;DHT22;38714;53.180;5.812;2022-12-18T05:13:36;-3.50;99.90
52849;DHT22;38714;53.180;5.812;2022-12-18T05:16:02;-3.50;99.90
52849;DHT22;38714;53.180;5.812;2022-12-18T05:18:29;-3.50;99.90
52849;DHT22;38714;53.180;5.812;2022-12-18T05:20:54;-3.60;99.90
52849;DHT22;38714;53.180;5.812;2022-12-18T05:23:21;-3.60;99.90
52849;DHT22;38714;53.180;5.812;2022-12-18T05:25:59;-3.70;99.90
52849;DHT22;38714;53.180;5.812;2022-12-18T05:28:26;-3.70;99.90
52849;DHT22;38714;53.180;5.812;2022-12-18T05:30:56;-3.70;99.90
52849;DHT22;38714;53.180;5.812;2022-12-18T05:33:23;-3.80;99.90
52849;DHT22;38714;53.180;5.812;2022-12-18T05:35:53;-3.80;99.90
52849;DHT22;38714;53.180;5.812;2022-12-18T05:38:20;-3.80;99.90
52849;DHT22;38714;53.180;5.812;2022-12-18T05:40:47;-3.80;99.90
52849;DHT22;38714;53.180;5.812;2022-12-18T05:43:13;-3.80;99.90
52849;DHT22;38714;53.180;5.812;2022-12-18T05:45:39;-3.90;99.90
52849;DHT22;38714;53.180;5.812;2022-12-18T05:48:05;-3.90;99.90
52849;DHT22;38714;53.180;5.812;2022-12-18T05:50:34;-3.90;99.90
52849;DHT22;38714;53.180;5.812;2022-12-18T05:53:00;-3.90;99.90
52849;DHT22;38714;53.180;5.812;2022-12-18T05:55:26;-4.00;99.90
52849;DHT22;38714;53.180;5.812;2022-12-18T05:57:51;-4.00;99.90
52849;DHT22;38714;53.180;5.812;2022-12-18T06:00:17;-4.10;99.90
52849;DHT22;38714;53.180;5.812;2022-12-18T06:02:46;-4.10;99.90
52849;DHT22;38714;53.180;5.812;2022-12-18T06:05:12;-4.10;99.90
52849;DHT22;38714;53.180;5.812;2022-12-18T06:07:38;-4.10;99.90
52849;DHT22;38714;53.180;5.812;2022-12-18T06:10:04;-4.10;99.90
52849;DHT22;38714;53.180;5.812;2022-12-18T06:12:29;-4.20;99.90
52849;DHT22;38714;53.180;5.812;2022-12-18T06:14:55;-4.20;99.90
52849;DHT22;38714;53.180;5.812;2022-12-18T06:17:20;-4.20;99.90
52849;DHT22;38714;53.180;5.812;2022-12-18T06:19:46;-4.30;99.90
52849;DHT22;38714;53.180;5.812;2022-12-18T06:22:12;-4.30;99.90
52849;DHT22;38714;53.180;5.812;2022-12-18T06:24:37;-4.30;99.90
52849;DHT22;38714;53.180;5.812;2022-12-18T06:27:03;-4.40;99.90
52849;DHT22;38714;53.180;5.812;2022-12-18T06:29:28;-4.30;99.90
52849;DHT22;38714;53.180;5.812;2022-12-18T06:31:54;-4.30;99.90
52849;DHT22;38714;53.180;5.812;2022-12-18T06:34:19;-4.30;99.90
52849;DHT22;38714;53.180;5.812;2022-12-18T06:36:45;-4.30;99.90
52849;DHT22;38714;53.180;5.812;2022-12-18T06:39:11;-4.30;99.90
52849;DHT22;38714;53.180;5.812;2022-12-18T06:41:36;-4.30;99.90
52849;DHT22;38714;53.180;5.812;2022-12-18T06:44:02;-4.30;99.90
52849;DHT22;38714;53.180;5.812;2022-12-18T06:46:28;-4.30;99.90
52849;DHT22;38714;53.180;5.812;2022-12-18T06:48:54;-4.30;99.90
52849;DHT22;38714;53.180;5.812;2022-12-18T06:51:21;-4.30;99.90
52849;DHT22;38714;53.180;5.812;2022-12-18T06:53:47;-4.30;99.90
52849;DHT22;38714;53.180;5.812;2022-12-18T06:56:13;-4.40;99.90
52849;DHT22;38714;53.180;5.812;2022-12-18T06:58:39;-4.40;99.90
52849;DHT22;38714;53.180;5.812;2022-12-18T07:01:07;-4.40;99.90
52849;DHT22;38714;53.180;5.812;2022-12-18T07:03:33;-4.40;99.90
52849;DHT22;38714;53.180;5.812;2022-12-18T07:05:59;-4.40;99.90
52849;DHT22;38714;53.180;5.812;2022-12-18T07:08:24;-4.40;99.90
52849;DHT22;38714;53.180;5.812;2022-12-18T07:10:50;-4.40;99.90
52849;DHT22;38714;53.180;5.812;2022-12-18T07:13:16;-4.40;99.90
52849;DHT22;38714;53.180;5.812;2022-12-18T07:15:43;-4.40;99.90
52849;DHT22;38714;53.180;5.812;2022-12-18T07:18:09;-4.40;99.90
52849;DHT22;38714;53.180;5.812;2022-12-18T07:20:34;-4.30;99.90
52849;DHT22;38714;53.180;5.812;2022-12-18T07:23:02;-4.30;99.90
52849;DHT22;38714;53.180;5.812;2022-12-18T07:25:28;-4.20;99.90
52849;DHT22;38714;53.180;5.812;2022-12-18T07:27:54;-4.20;99.90
52849;DHT22;38714;53.180;5.812;2022-12-18T07:30:19;-4.20;99.90
52849;DHT22;38714;53.180;5.812;2022-12-18T07:32:45;-4.20;99.90
52849;DHT22;38714;53.180;5.812;2022-12-18T07:35:11;-4.20;99.90
52849;DHT22;38714;53.180;5.812;2022-12-18T07:37:36;-4.20;99.90
52849;DHT22;38714;53.180;5.812;2022-12-18T07:40:02;-4.20;99.90
52849;DHT22;38714;53.180;5.812;2022-12-18T07:42:28;-4.20;99.90
52849;DHT22;38714;53.180;5.812;2022-12-18T07:44:59;-4.20;99.90
52849;DHT22;38714;53.180;5.812;2022-12-18T07:47:25;-4.20;99.90
52849;DHT22;38714;53.180;5.812;2022-12-18T07:49:51;-4.10;99.90
52849;DHT22;38714;53.180;5.812;2022-12-18T07:52:17;-4.10;99.90
52849;DHT22;38714;53.180;5.812;2022-12-18T07:54:42;-4.10;99.90
52849;DHT22;38714;53.180;5.812;2022-12-18T07:57:08;-4.10;99.90
52849;DHT22;38714;53.180;5.812;2022-12-18T07:59:34;-4.10;99.90
52849;DHT22;38714;53.180;5.812;2022-12-18T08:02:00;-4.20;99.90
52849;DHT22;38714;53.180;5.812;2022-12-18T08:04:26;-4.20;99.90
52849;DHT22;38714;53.180;5.812;2022-12-18T08:06:51;-4.20;99.90
52849;DHT22;38714;53.180;5.812;2022-12-18T08:09:17;-4.10;99.90
52849;DHT22;38714;53.180;5.812;2022-12-18T08:11:43;-4.10;99.90
52849;DHT22;38714;53.180;5.812;2022-12-18T08:14:09;-4.10;99.90
52849;DHT22;38714;53.180;5.812;2022-12-18T08:16:35;-4.10;99.90
52849;DHT22;38714;53.180;5.812;2022-12-18T08:19:01;-4.00;99.90
52849;DHT22;38714;53.180;5.812;2022-12-18T08:21:29;-4.00;99.90
52849;DHT22;38714;53.180;5.812;2022-12-18T08:24:00;-4.00;99.90
52849;DHT22;38714;53.180;5.812;2022-12-18T08:26:27;-4.00;99.90
52849;DHT22;38714;53.180;5.812;2022-12-18T08:28:55;-3.90;99.90
52849;DHT22;38714;53.180;5.812;2022-12-18T08:31:22;-3.90;99.90
52849;DHT22;38714;53.180;5.812;2022-12-18T08:33:49;-3.90;99.90
52849;DHT22;38714;53.180;5.812;2022-12-18T08:36:16;-3.90;99.90
52849;DHT22;38714;53.180;5.812;2022-12-18T08:38:42;-3.80;99.90
52849;DHT22;38714;53.180;5.812;2022-12-18T08:41:10;-3.80;99.90
52849;DHT22;38714;53.180;5.812;2022-12-18T08:43:36;-3.70;99.90
52849;DHT22;38714;53.180;5.812;2022-12-18T08:46:22;-3.70;99.90
52849;DHT22;38714;53.180;5.812;2022-12-18T08:48:51;-3.70;99.90
52849;DHT22;38714;53.180;5.812;2022-12-18T08:51:17;-3.70;99.90
52849;DHT22;38714;53.180;5.812;2022-12-18T08:53:43;-3.70;99.90
52849;DHT22;38714;53.180;5.812;2022-12-18T08:56:10;-3.70;99.90
52849;DHT22;38714;53.180;5.812;2022-12-18T08:58:36;-3.60;99.90
52849;DHT22;38714;53.180;5.812;2022-12-18T09:01:06;-3.60;99.90
52849;DHT22;38714;53.180;5.812;2022-12-18T09:03:32;-3.60;99.90
52849;DHT22;38714;53.180;5.812;2022-12-18T09:05:58;-3.60;99.90
52849;DHT22;38714;53.180;5.812;2022-12-18T09:08:25;-3.50;99.90
52849;DHT22;38714;53.180;5.812;2022-12-18T09:10:51;-3.50;99.90
52849;DHT22;38714;53.180;5.812;2022-12-18T09:13:17;-3.40;99.90
52849;DHT22;38714;53.180;5.812;2022-12-18T09:15:49;-3.40;99.90
52849;DHT22;38714;53.180;5.812;2022-12-18T09:18:16;-3.30;99.90
52849;DHT22;38714;53.180;5.812;2022-12-18T09:20:42;-3.30;99.90
52849;DHT22;38714;53.180;5.812;2022-12-18T09:23:09;-3.30;99.90
52849;DHT22;38714;53.180;5.812;2022-12-18T09:25:36;-3.20;99.90
52849;DHT22;38714;53.180;5.812;2022-12-18T09:28:04;-3.20;99.90
52849;DHT22;38714;53.180;5.812;2022-12-18T09:30:30;-3.10;99.90
52849;DHT22;38714;53.180;5.812;2022-12-18T09:32:56;-3.10;99.90
52849;DHT22;38714;53.180;5.812;2022-12-18T09:35:21;-3.00;99.90
52849;DHT22;38714;53.180;5.812;2022-12-18T09:37:47;-3.00;99.90
52849;DHT22;38714;53.180;5.812;2022-12-18T09:40:15;-3.00;99.90
52849;DHT22;38714;53.180;5.812;2022-12-18T09:42:45;-2.90;99.90
52849;DHT22;38714;53.180;5.812;2022-12-18T09:45:13;-2.90;99.90
52849;DHT22;38714;53.180;5.812;2022-12-18T09:47:40;-2.90;99.90
52849;DHT22;38714;53.180;5.812;2022-12-18T09:50:29;-2.80;99.90
52849;DHT22;38714;53.180;5.812;2022-12-18T09:52:57;-2.80;99.90
52849;DHT22;38714;53.180;5.812;2022-12-18T09:58:02;-2.70;99.90
52849;DHT22;38714;53.180;5.812;2022-12-18T10:00:30;-2.70;99.90
52849;DHT22;38714;53.180;5.812;2022-12-18T10:03:02;-2.70;99.90
52849;DHT22;38714;53.180;5.812;2022-12-18T10:11:36;-2.60;99.90
52849;DHT22;38714;53.180;5.812;2022-12-18T10:14:37;-2.60;99.90
52849;DHT22;38714;53.180;5.812;2022-12-18T10:17:24;-2.60;99.90
52849;DHT22;38714;53.180;5.812;2022-12-18T10:20:01;-2.60;99.90
52849;DHT22;38714;53.180;5.812;2022-12-18T10:25:21;-2.50;99.90
52849;DHT22;38714;53.180;5.812;2022-12-18T10:27:48;-2.50;99.90
52849;DHT22;38714;53.180;5.812;2022-12-18T10:30:19;-2.40;99.90
52849;DHT22;38714;53.180;5.812;2022-12-18T10:32:44;-2.40;99.90
52849;DHT22;38714;53.180;5.812;2022-12-18T10:35:24;-2.40;99.90
52849;DHT22;38714;53.180;5.812;2022-12-18T10:43:22;-2.20;99.90
52849;DHT22;38714;53.180;5.812;2022-12-18T10:46:20;-2.20;99.90
52849;DHT22;38714;53.180;5.812;2022-12-18T10:53:52;-2.10;99.90
52849;DHT22;38714;53.180;5.812;2022-12-18T10:56:20;-2.10;99.90
52849;DHT22;38714;53.180;5.812;2022-12-18T10:58:59;-2.00;99.90
52849;DHT22;38714;53.180;5.812;2022-12-18T11:01:25;-2.00;99.90
52849;DHT22;38714;53.180;5.812;2022-12-18T11:06:22;-1.90;99.90
52849;DHT22;38714;53.180;5.812;2022-12-18T11:09:25;-1.90;99.90
52849;DHT22;38714;53.180;5.812;2022-12-18T11:12:03;-1.90;99.90
52849;DHT22;38714;53.180;5.812;2022-12-18T11:14:33;-1.80;99.90
52849;DHT22;38714;53.180;5.812;2022-12-18T11:17:00;-1.80;99.90
52849;DHT22;38714;53.180;5.812;2022-12-18T11:19:34;-1.70;99.90
52849;DHT22;38714;53.180;5.812;2022-12-18T11:22:03;-1.70;99.90
52849;DHT22;38714;53.180;5.812;2022-12-18T11:24:36;-1.70;99.90
52849;DHT22;38714;53.180;5.812;2022-12-18T11:27:02;-1.70;99.90
52849;DHT22;38714;53.180;5.812;2022-12-18T11:29:35;-1.60;99.90
52849;DHT22;38714;53.180;5.812;2022-12-18T11:34:53;-1.60;99.90
52849;DHT22;38714;53.180;5.812;2022-12-18T11:37:20;-1.60;99.90
52849;DHT22;38714;53.180;5.812;2022-12-18T11:39:51;-1.50;99.90
52849;DHT22;38714;53.180;5.812;2022-12-18T11:42:27;-1.50;99.90
52849;DHT22;38714;53.180;5.812;2022-12-18T11:44:59;-1.50;99.90
52849;DHT22;38714;53.180;5.812;2022-12-18T11:47:41;-1.50;99.90
52849;DHT22;38714;53.180;5.812;2022-12-18T11:50:16;-1.50;99.90
52849;DHT22;38714;53.180;5.812;2022-12-18T11:52:42;-1.40;99.90
52849;DHT22;38714;53.180;5.812;2022-12-18T12:01:01;-1.40;99.90
52849;DHT22;38714;53.180;5.812;2022-12-18T12:08:59;-1.40;99.90
52849;DHT22;38714;53.180;5.812;2022-12-18T12:14:28;-1.30;99.90
52849;DHT22;38714;53.180;5.812;2022-12-18T12:17:10;-1.30;99.90
52849;DHT22;38714;53.180;5.812;2022-12-18T12:20:08;-1.30;99.90
52849;DHT22;38714;53.180;5.812;2022-12-18T12:22:59;-1.30;99.90
52849;DHT22;38714;53.180;5.812;2022-12-18T12:25:40;-1.20;99.90
52849;DHT22;38714;53.180;5.812;2022-12-18T12:31:08;-1.20;99.90
52849;DHT22;38714;53.180;5.812;2022-12-18T12:39:11;-1.20;99.90
52849;DHT22;38714;53.180;5.812;2022-12-18T12:41:39;-1.10;99.90
52849;DHT22;38714;53.180;5.812;2022-12-18T12:44:32;-1.10;99.90
52849;DHT22;38714;53.180;5.812;2022-12-18T12:47:11;-1.10;99.90
52849;DHT22;38714;53.180;5.812;2022-12-18T12:49:38;-1.10;99.90
52849;DHT22;38714;53.180;5.812;2022-12-18T12:52:14;-1.00;99.90
52849;DHT22;38714;53.180;5.812;2022-12-18T12:54:42;-1.00;99.90
52849;DHT22;38714;53.180;5.812;2022-12-18T12:57:24;-1.00;99.90
52849;DHT22;38714;53.180;5.812;2022-12-18T13:00:13;-1.00;99.90
52849;DHT22;38714;53.180;5.812;2022-12-18T13:03:03;-1.00;99.90
52849;DHT22;38714;53.180;5.812;2022-12-18T13:05:44;-0.90;99.90
52849;DHT22;38714;53.180;5.812;2022-12-18T13:08:32;-0.90;99.90
52849;DHT22;38714;53.180;5.812;2022-12-18T13:10:58;-1.00;99.90
52849;DHT22;38714;53.180;5.812;2022-12-18T13:13:55;-0.90;99.90
52849;DHT22;38714;53.180;5.812;2022-12-18T13:16:26;-0.90;99.90
52849;DHT22;38714;53.180;5.812;2022-12-18T13:18:57;-0.90;99.90
52849;DHT22;38714;53.180;5.812;2022-12-18T13:21:27;-0.90;99.90
52849;DHT22;38714;53.180;5.812;2022-12-18T13:23:54;-0.90;99.90
52849;DHT22;38714;53.180;5.812;2022-12-18T13:28:53;-0.90;99.90
52849;DHT22;38714;53.180;5.812;2022-12-18T13:34:26;-0.90;99.90
52849;DHT22;38714;53.180;5.812;2022-12-18T13:36:53;-0.80;99.90
52849;DHT22;38714;53.180;5.812;2022-12-18T13:44:38;-0.80;99.90
52849;DHT22;38714;53.180;5.812;2022-12-18T13:47:34;-0.80;99.90
52849;DHT22;38714;53.180;5.812;2022-12-18T13:50:09;-0.80;99.90
52849;DHT22;38714;53.180;5.812;2022-12-18T13:52:37;-0.80;99.90
52849;DHT22;38714;53.180;5.812;2022-12-18T13:55:10;-0.80;99.90
52849;DHT22;38714;53.180;5.812;2022-12-18T13:57:40;-0.80;99.90
52849;DHT22;38714;53.180;5.812;2022-12-18T14:00:26;-0.80;99.90
52849;DHT22;38714;53.180;5.812;2022-12-18T14:02:54;-0.80;99.90
52849;DHT22;38714;53.180;5.812;2022-12-18T14:05:24;-0.80;99.90
52849;DHT22;38714;53.180;5.812;2022-12-18T14:07:50;-0.80;99.90
52849;DHT22;38714;53.180;5.812;2022-12-18T14:10:17;-0.80;99.90
52849;DHT22;38714;53.180;5.812;2022-12-18T14:12:46;-0.80;99.90
52849;DHT22;38714;53.180;5.812;2022-12-18T14:15:44;-0.70;99.90
52849;DHT22;38714;53.180;5.812;2022-12-18T14:18:26;-0.80;99.90
52849;DHT22;38714;53.180;5.812;2022-12-18T14:20:56;-0.80;99.90
52849;DHT22;38714;53.180;5.812;2022-12-18T14:23:27;-0.80;99.90
52849;DHT22;38714;53.180;5.812;2022-12-18T14:25:52;-0.80;99.90
52849;DHT22;38714;53.180;5.812;2022-12-18T14:28:18;-0.80;99.90
52849;DHT22;38714;53.180;5.812;2022-12-18T14:30:45;-0.80;99.90
52849;DHT22;38714;53.180;5.812;2022-12-18T14:33:15;-0.80;99.90
52849;DHT22;38714;53.180;5.812;2022-12-18T14:36:14;-0.80;99.90
52849;DHT22;38714;53.180;5.812;2022-12-18T14:38:41;-0.80;99.90
52849;DHT22;38714;53.180;5.812;2022-12-18T14:41:14;-0.80;99.90
52849;DHT22;38714;53.180;5.812;2022-12-18T14:43:42;-0.80;99.90
52849;DHT22;38714;53.180;5.812;2022-12-18T14:46:37;-0.80;99.90
52849;DHT22;38714;53.180;5.812;2022-12-18T14:49:17;-0.80;99.90
52849;DHT22;38714;53.180;5.812;2022-12-18T14:54:28;-0.90;99.90
52849;DHT22;38714;53.180;5.812;2022-12-18T14:57:32;-0.90;99.90
52849;DHT22;38714;53.180;5.812;2022-12-18T15:00:18;-0.90;99.90
52849;DHT22;38714;53.180;5.812;2022-12-18T15:02:53;-0.90;99.90
52849;DHT22;38714;53.180;5.812;2022-12-18T15:07:51;-0.90;99.90
52849;DHT22;38714;53.180;5.812;2022-12-18T15:10:20;-0.90;99.90
52849;DHT22;38714;53.180;5.812;2022-12-18T15:12:48;-0.80;99.90
52849;DHT22;38714;53.180;5.812;2022-12-18T15:20:46;-0.90;99.90
52849;DHT22;38714;53.180;5.812;2022-12-18T15:23:25;-0.90;99.90
52849;DHT22;38714;53.180;5.812;2022-12-18T15:26:05;-0.90;99.90
52849;DHT22;38714;53.180;5.812;2022-12-18T15:33:40;-0.90;99.90
52849;DHT22;38714;53.180;5.812;2022-12-18T15:36:15;-0.90;99.90
52849;DHT22;38714;53.180;5.812;2022-12-18T15:38:41;-0.90;99.90
52849;DHT22;38714;53.180;5.812;2022-12-18T15:41:13;-0.90;99.90
52849;DHT22;38714;53.180;5.812;2022-12-18T15:43:39;-0.80;99.90
52849;DHT22;38714;53.180;5.812;2022-12-18T15:46:09;-0.90;99.90
52849;DHT22;38714;53.180;5.812;2022-12-18T15:48:58;-0.90;99.90
52849;DHT22;38714;53.180;5.812;2022-12-18T15:53:53;-0.90;99.90
52849;DHT22;38714;53.180;5.812;2022-12-18T15:56:19;-0.90;99.90
52849;DHT22;38714;53.180;5.812;2022-12-18T15:59:17;-0.90;99.90
52849;DHT22;38714;53.180;5.812;2022-12-18T16:01:46;-0.90;99.90
52849;DHT22;38714;53.180;5.812;2022-12-18T16:04:13;-0.90;99.90
52849;DHT22;38714;53.180;5.812;2022-12-18T16:06:39;-0.90;99.90
52849;DHT22;38714;53.180;5.812;2022-12-18T16:09:05;-0.80;99.90
52849;DHT22;38714;53.180;5.812;2022-12-18T16:11:32;-0.90;99.90
52849;DHT22;38714;53.180;5.812;2022-12-18T16:16:32;-0.90;99.90
52849;DHT22;38714;53.180;5.812;2022-12-18T16:18:57;-0.80;99.90
52849;DHT22;38714;53.180;5.812;2022-12-18T16:21:23;-0.80;99.90
52849;DHT22;38714;53.180;5.812;2022-12-18T16:23:49;-0.80;99.90
52849;DHT22;38714;53.180;5.812;2022-12-18T16:26:14;-0.80;99.90
52849;DHT22;38714;53.180;5.812;2022-12-18T16:28:40;-0.80;99.90
52849;DHT22;38714;53.180;5.812;2022-12-18T16:31:10;-0.80;99.90
52849;DHT22;38714;53.180;5.812;2022-12-18T16:33:36;-0.80;99.90
52849;DHT22;38714;53.180;5.812;2022-12-18T16:36:01;-0.80;99.90
52849;DHT22;38714;53.180;5.812;2022-12-18T16:38:27;-0.80;99.90
52849;DHT22;38714;53.180;5.812;2022-12-18T16:40:52;-0.70;99.90
52849;DHT22;38714;53.180;5.812;2022-12-18T16:43:36;-0.70;99.90
52849;DHT22;38714;53.180;5.812;2022-12-18T16:46:02;-0.70;99.90
52849;DHT22;38714;53.180;5.812;2022-12-18T16:48:28;-0.70;99.90
52849;DHT22;38714;53.180;5.812;2022-12-18T16:51:04;-0.70;99.90
52849;DHT22;38714;53.180;5.812;2022-12-18T16:53:31;-0.70;99.90
52849;DHT22;38714;53.180;5.812;2022-12-18T16:55:57;-0.70;99.90
52849;DHT22;38714;53.180;5.812;2022-12-18T16:58:23;-0.70;99.90
52849;DHT22;38714;53.180;5.812;2022-12-18T17:00:48;-0.70;99.90
52849;DHT22;38714;53.180;5.812;2022-12-18T17:03:14;-0.70;99.90
52849;DHT22;38714;53.180;5.812;2022-12-18T17:05:40;-0.60;99.90
52849;DHT22;38714;53.180;5.812;2022-12-18T17:08:05;-0.70;99.90
52849;DHT22;38714;53.180;5.812;2022-12-18T17:10:33;-0.60;99.90
52849;DHT22;38714;53.180;5.812;2022-12-18T17:12:59;-0.60;99.90
52849;DHT22;38714;53.180;5.812;2022-12-18T17:15:25;-0.60;99.90
52849;DHT22;38714;53.180;5.812;2022-12-18T17:17:51;-0.60;99.90
52849;DHT22;38714;53.180;5.812;2022-12-18T17:20:16;-0.60;99.90
52849;DHT22;38714;53.180;5.812;2022-12-18T17:22:42;-0.60;99.90
52849;DHT22;38714;53.180;5.812;2022-12-18T17:25:08;-0.60;99.90
52849;DHT22;38714;53.180;5.812;2022-12-18T17:27:33;-0.60;99.90
52849;DHT22;38714;53.180;5.812;2022-12-18T17:29:59;-0.60;99.90
52849;DHT22;38714;53.180;5.812;2022-12-18T17:32:24;-0.60;99.90
52849;DHT22;38714;53.180;5.812;2022-12-18T17:34:50;-0.50;99.90
52849;DHT22;38714;53.180;5.812;2022-12-18T17:37:16;-0.50;99.90